sensor_id;sensor_type;location;lat;lon;timestamp;P1;durP1;ratioP1;P2;durP2;ratioP2
64881;SDS011;51375;44.836;38.672;2024-02-21T00:01:03;12.93;;;7.20;;
64881;SDS011;51375;44.836;38.672;2024-02-21T00:03:30;12.23;;;6.60;;
64881;SDS011;51375;44.836;38.672;2024-02-21T00:05:56;11.07;;;6.63;;
64881;SDS011;51375;44.836;38.672;2024-02-21T00:08:22;10.60;;;6.32;;
64881;SDS011;51375;44.836;38.672;2024-02-21T00:10:48;12.05;;;6.90;;
64881;SDS011;51375;44.836;38.672;2024-02-21T00:13:14;11.75;;;6.68;;
64881;SDS011;51375;44.836;38.672;2024-02-21T00:15:40;10.57;;;6.97;;
64881;SDS011;51375;44.836;38.672;2024-02-21T00:18:06;12.85;;;7.07;;
64881;SDS011;51375;44.836;38.672;2024-02-21T00:20:32;11.25;;;6.70;;
64881;SDS011;51375;44.836;38.672;2024-02-21T00:22:58;12.50;;;7.03;;
64881;SDS011;51375;44.836;38.672;2024-02-21T00:25:24;15.13;;;6.88;;
64881;SDS011;51375;44.836;38.672;2024-02-21T00:27:50;15.63;;;7.40;;
64881;SDS011;51375;44.836;38.672;2024-02-21T00:30:16;13.40;;;7.70;;
64881;SDS011;51375;44.836;38.672;2024-02-21T00:32:42;10.38;;;6.18;;
64881;SDS011;51375;44.836;38.672;2024-02-21T00:35:08;12.27;;;7.53;;
64881;SDS011;51375;44.836;38.672;2024-02-21T00:37:34;14.00;;;7.35;;
64881;SDS011;51375;44.836;38.672;2024-02-21T00:40:00;14.07;;;7.22;;
64881;SDS011;51375;44.836;38.672;2024-02-21T00:42:26;13.38;;;7.28;;
64881;SDS011;51375;44.836;38.672;2024-02-21T00:44:52;10.73;;;6.75;;
64881;SDS011;51375;44.836;38.672;2024-02-21T00:47:18;11.45;;;6.90;;
64881;SDS011;51375;44.836;38.672;2024-02-21T00:49:44;16.23;;;7.43;;
64881;SDS011;51375;44.836;38.672;2024-02-21T00:52:10;12.52;;;6.70;;
64881;SDS011;51375;44.836;38.672;2024-02-21T00:54:36;13.57;;;7.75;;
64881;SDS011;51375;44.836;38.672;2024-02-21T00:57:02;10.63;;;6.68;;
64881;SDS011;51375;44.836;38.672;2024-02-21T00:59:28;11.95;;;6.47;;
64881;SDS011;51375;44.836;38.672;2024-02-21T01:01:54;11.10;;;6.68;;
64881;SDS011;51375;44.836;38.672;2024-02-21T01:04:20;13.25;;;6.90;;
64881;SDS011;51375;44.836;38.672;2024-02-21T01:06:46;15.65;;;7.25;;
64881;SDS011;51375;44.836;38.672;2024-02-21T01:09:12;13.00;;;6.60;;
64881;SDS011;51375;44.836;38.672;2024-02-21T01:11:38;9.60;;;5.65;;
64881;SDS011;51375;44.836;38.672;2024-02-21T01:14:04;8.70;;;6.03;;
64881;SDS011;51375;44.836;38.672;2024-02-21T01:16:30;10.55;;;6.57;;
64881;SDS011;51375;44.836;38.672;2024-02-21T01:18:56;11.38;;;6.38;;
64881;SDS011;51375;44.836;38.672;2024-02-21T01:21:23;11.18;;;6.90;;
64881;SDS011;51375;44.836;38.672;2024-02-21T01:23:49;10.63;;;6.10;;
64881;SDS011;51375;44.836;38.672;2024-02-21T01:26:15;12.52;;;7.32;;
64881;SDS011;51375;44.836;38.672;2024-02-21T01:28:41;13.15;;;6.63;;
64881;SDS011;51375;44.836;38.672;2024-02-21T01:31:07;11.05;;;6.97;;
64881;SDS011;51375;44.836;38.672;2024-02-21T01:33:33;11.20;;;6.78;;
64881;SDS011;51375;44.836;38.672;2024-02-21T01:36:04;10.95;;;5.85;;
64881;SDS011;51375;44.836;38.672;2024-02-21T01:38:33;9.13;;;5.65;;
64881;SDS011;51375;44.836;38.672;2024-02-21T01:40:59;10.95;;;6.03;;
64881;SDS011;51375;44.836;38.672;2024-02-21T01:43:26;11.02;;;6.50;;
64881;SDS011;51375;44.836;38.672;2024-02-21T01:45:52;10.25;;;6.53;;
64881;SDS011;51375;44.836;38.672;2024-02-21T01:48:21;9.75;;;6.47;;
64881;SDS011;51375;44.836;38.672;2024-02-21T01:50:51;10.38;;;6.45;;
64881;SDS011;51375;44.836;38.672;2024-02-21T01:53:20;12.05;;;6.50;;
64881;SDS011;51375;44.836;38.672;2024-02-21T01:55:58;9.00;;;5.80;;
64881;SDS011;51375;44.836;38.672;2024-02-21T01:58:24;9.90;;;6.28;;
64881;SDS011;51375;44.836;38.672;2024-02-21T02:00:50;10.15;;;6.03;;
64881;SDS011;51375;44.836;38.672;2024-02-21T02:03:17;12.35;;;5.90;;
64881;SDS011;51375;44.836;38.672;2024-02-21T02:05:44;8.75;;;6.05;;
64881;SDS011;51375;44.836;38.672;2024-02-21T02:08:14;10.13;;;6.40;;
64881;SDS011;51375;44.836;38.672;2024-02-21T02:10:41;14.18;;;6.20;;
64881;SDS011;51375;44.836;38.672;2024-02-21T02:13:07;12.85;;;6.93;;
64881;SDS011;51375;44.836;38.672;2024-02-21T02:15:48;10.73;;;6.45;;
64881;SDS011;51375;44.836;38.672;2024-02-21T02:18:15;10.68;;;6.28;;
64881;SDS011;51375;44.836;38.672;2024-02-21T02:20:43;11.52;;;6.45;;
64881;SDS011;51375;44.836;38.672;2024-02-21T02:23:17;10.85;;;6.03;;
64881;SDS011;51375;44.836;38.672;2024-02-21T02:25:43;10.75;;;5.90;;
64881;SDS011;51375;44.836;38.672;2024-02-21T02:28:14;13.10;;;5.93;;
64881;SDS011;51375;44.836;38.672;2024-02-21T02:30:41;10.32;;;6.20;;
64881;SDS011;51375;44.836;38.672;2024-02-21T02:33:06;13.02;;;6.53;;
64881;SDS011;51375;44.836;38.672;2024-02-21T02:35:32;11.88;;;6.60;;
64881;SDS011;51375;44.836;38.672;2024-02-21T02:38:00;8.90;;;5.57;;
64881;SDS011;51375;44.836;38.672;2024-02-21T02:40:26;11.38;;;6.20;;
64881;SDS011;51375;44.836;38.672;2024-02-21T02:42:52;14.60;;;7.35;;
64881;SDS011;51375;44.836;38.672;2024-02-21T02:45:20;12.70;;;6.70;;
64881;SDS011;51375;44.836;38.672;2024-02-21T02:47:54;14.18;;;6.40;;
64881;SDS011;51375;44.836;38.672;2024-02-21T02:50:25;9.93;;;6.25;;
64881;SDS011;51375;44.836;38.672;2024-02-21T02:52:52;13.10;;;6.18;;
64881;SDS011;51375;44.836;38.672;2024-02-21T02:55:19;12.77;;;6.72;;
64881;SDS011;51375;44.836;38.672;2024-02-21T02:57:45;15.45;;;6.00;;
64881;SDS011;51375;44.836;38.672;2024-02-21T03:00:12;12.75;;;7.07;;
64881;SDS011;51375;44.836;38.672;2024-02-21T03:02:39;10.85;;;6.15;;
64881;SDS011;51375;44.836;38.672;2024-02-21T03:05:13;10.32;;;6.10;;
64881;SDS011;51375;44.836;38.672;2024-02-21T03:07:39;10.63;;;6.20;;
64881;SDS011;51375;44.836;38.672;2024-02-21T03:10:06;13.20;;;6.60;;
64881;SDS011;51375;44.836;38.672;2024-02-21T03:12:32;9.82;;;5.80;;
64881;SDS011;51375;44.836;38.672;2024-02-21T03:14:58;14.00;;;6.82;;
64881;SDS011;51375;44.836;38.672;2024-02-21T03:17:25;10.80;;;6.13;;
64881;SDS011;51375;44.836;38.672;2024-02-21T03:19:52;13.93;;;6.43;;
64881;SDS011;51375;44.836;38.672;2024-02-21T03:22:20;15.85;;;6.70;;
64881;SDS011;51375;44.836;38.672;2024-02-21T03:24:46;12.95;;;6.68;;
64881;SDS011;51375;44.836;38.672;2024-02-21T03:27:12;10.50;;;6.35;;
64881;SDS011;51375;44.836;38.672;2024-02-21T03:29:38;13.02;;;6.57;;
64881;SDS011;51375;44.836;38.672;2024-02-21T03:32:04;13.10;;;6.25;;
64881;SDS011;51375;44.836;38.672;2024-02-21T03:34:30;11.77;;;6.32;;
64881;SDS011;51375;44.836;38.672;2024-02-21T03:36:56;16.70;;;7.03;;
64881;SDS011;51375;44.836;38.672;2024-02-21T03:39:23;13.45;;;6.82;;
64881;SDS011;51375;44.836;38.672;2024-02-21T03:41:49;12.38;;;6.70;;
64881;SDS011;51375;44.836;38.672;2024-02-21T03:44:15;14.25;;;6.75;;
64881;SDS011;51375;44.836;38.672;2024-02-21T03:46:41;12.15;;;6.38;;
64881;SDS011;51375;44.836;38.672;2024-02-21T03:49:07;15.60;;;7.20;;
64881;SDS011;51375;44.836;38.672;2024-02-21T03:51:33;11.43;;;6.72;;
64881;SDS011;51375;44.836;38.672;2024-02-21T03:53:59;11.63;;;6.93;;
64881;SDS011;51375;44.836;38.672;2024-02-21T03:56:25;9.10;;;6.07;;
64881;SDS011;51375;44.836;38.672;2024-02-21T03:58:51;12.30;;;7.40;;
64881;SDS011;51375;44.836;38.672;2024-02-21T04:01:17;17.05;;;7.22;;
64881;SDS011;51375;44.836;38.672;2024-02-21T04:03:43;9.70;;;6.35;;
64881;SDS011;51375;44.836;38.672;2024-02-21T04:06:10;11.30;;;6.43;;
64881;SDS011;51375;44.836;38.672;2024-02-21T04:08:36;16.33;;;6.70;;
64881;SDS011;51375;44.836;38.672;2024-02-21T04:11:02;8.88;;;5.82;;
64881;SDS011;51375;44.836;38.672;2024-02-21T04:13:28;11.63;;;6.30;;
64881;SDS011;51375;44.836;38.672;2024-02-21T04:15:54;12.00;;;6.50;;
64881;SDS011;51375;44.836;38.672;2024-02-21T04:18:20;16.65;;;6.75;;
64881;SDS011;51375;44.836;38.672;2024-02-21T04:20:46;9.57;;;6.13;;
64881;SDS011;51375;44.836;38.672;2024-02-21T04:23:12;10.88;;;6.55;;
64881;SDS011;51375;44.836;38.672;2024-02-21T04:25:38;11.80;;;7.07;;
64881;SDS011;51375;44.836;38.672;2024-02-21T04:28:04;12.98;;;6.47;;
64881;SDS011;51375;44.836;38.672;2024-02-21T04:30:30;11.20;;;7.38;;
64881;SDS011;51375;44.836;38.672;2024-02-21T04:32:56;14.75;;;6.88;;
64881;SDS011;51375;44.836;38.672;2024-02-21T04:35:22;13.73;;;6.78;;
64881;SDS011;51375;44.836;38.672;2024-02-21T04:37:49;12.00;;;6.95;;
64881;SDS011;51375;44.836;38.672;2024-02-21T04:40:15;13.55;;;6.65;;
64881;SDS011;51375;44.836;38.672;2024-02-21T04:42:42;10.32;;;6.72;;
64881;SDS011;51375;44.836;38.672;2024-02-21T04:45:08;10.55;;;6.80;;
64881;SDS011;51375;44.836;38.672;2024-02-21T04:47:34;12.93;;;7.15;;
64881;SDS011;51375;44.836;38.672;2024-02-21T04:50:00;12.35;;;7.00;;
64881;SDS011;51375;44.836;38.672;2024-02-21T04:52:26;14.45;;;6.93;;
64881;SDS011;51375;44.836;38.672;2024-02-21T04:54:52;10.68;;;6.28;;
64881;SDS011;51375;44.836;38.672;2024-02-21T04:57:18;11.18;;;5.63;;
64881;SDS011;51375;44.836;38.672;2024-02-21T04:59:45;11.32;;;5.78;;
64881;SDS011;51375;44.836;38.672;2024-02-21T05:02:13;15.93;;;5.93;;
64881;SDS011;51375;44.836;38.672;2024-02-21T05:04:39;10.60;;;6.10;;
64881;SDS011;51375;44.836;38.672;2024-02-21T05:07:07;9.35;;;5.55;;
64881;SDS011;51375;44.836;38.672;2024-02-21T05:09:33;9.50;;;5.43;;
64881;SDS011;51375;44.836;38.672;2024-02-21T05:11:59;7.88;;;5.57;;
64881;SDS011;51375;44.836;38.672;2024-02-21T05:14:25;10.80;;;5.55;;
64881;SDS011;51375;44.836;38.672;2024-02-21T05:16:54;9.48;;;5.43;;
64881;SDS011;51375;44.836;38.672;2024-02-21T05:19:20;13.63;;;5.90;;
64881;SDS011;51375;44.836;38.672;2024-02-21T05:21:46;12.10;;;6.00;;
64881;SDS011;51375;44.836;38.672;2024-02-21T05:24:13;9.20;;;5.88;;
64881;SDS011;51375;44.836;38.672;2024-02-21T05:26:39;14.02;;;6.22;;
64881;SDS011;51375;44.836;38.672;2024-02-21T05:29:05;15.25;;;6.38;;
64881;SDS011;51375;44.836;38.672;2024-02-21T05:31:42;14.00;;;6.13;;
64881;SDS011;51375;44.836;38.672;2024-02-21T05:34:29;13.50;;;6.70;;
64881;SDS011;51375;44.836;38.672;2024-02-21T05:36:55;11.25;;;6.35;;
64881;SDS011;51375;44.836;38.672;2024-02-21T05:39:21;9.10;;;5.75;;
64881;SDS011;51375;44.836;38.672;2024-02-21T05:41:48;10.20;;;6.05;;
64881;SDS011;51375;44.836;38.672;2024-02-21T05:44:15;13.73;;;6.40;;
64881;SDS011;51375;44.836;38.672;2024-02-21T05:46:41;10.30;;;6.47;;
64881;SDS011;51375;44.836;38.672;2024-02-21T05:49:07;10.32;;;6.30;;
64881;SDS011;51375;44.836;38.672;2024-02-21T05:51:34;11.77;;;5.38;;
64881;SDS011;51375;44.836;38.672;2024-02-21T05:54:00;11.90;;;6.15;;
64881;SDS011;51375;44.836;38.672;2024-02-21T05:56:27;14.02;;;6.00;;
64881;SDS011;51375;44.836;38.672;2024-02-21T05:58:53;9.18;;;5.35;;
64881;SDS011;51375;44.836;38.672;2024-02-21T06:01:19;11.18;;;6.28;;
64881;SDS011;51375;44.836;38.672;2024-02-21T06:03:48;9.88;;;6.10;;
64881;SDS011;51375;44.836;38.672;2024-02-21T06:06:14;13.80;;;5.93;;
64881;SDS011;51375;44.836;38.672;2024-02-21T06:08:40;11.45;;;5.70;;
64881;SDS011;51375;44.836;38.672;2024-02-21T06:11:06;11.20;;;5.63;;
64881;SDS011;51375;44.836;38.672;2024-02-21T06:13:32;12.73;;;5.70;;
64881;SDS011;51375;44.836;38.672;2024-02-21T06:15:59;9.02;;;6.03;;
64881;SDS011;51375;44.836;38.672;2024-02-21T06:18:25;10.23;;;7.10;;
64881;SDS011;51375;44.836;38.672;2024-02-21T06:20:51;13.70;;;6.22;;
64881;SDS011;51375;44.836;38.672;2024-02-21T06:23:17;10.27;;;6.20;;
64881;SDS011;51375;44.836;38.672;2024-02-21T06:25:43;13.38;;;6.45;;
64881;SDS011;51375;44.836;38.672;2024-02-21T06:28:10;8.77;;;6.05;;
64881;SDS011;51375;44.836;38.672;2024-02-21T06:30:36;12.93;;;7.18;;
64881;SDS011;51375;44.836;38.672;2024-02-21T06:33:02;10.43;;;6.43;;
64881;SDS011;51375;44.836;38.672;2024-02-21T06:35:28;9.38;;;6.20;;
64881;SDS011;51375;44.836;38.672;2024-02-21T06:37:54;13.27;;;6.95;;
64881;SDS011;51375;44.836;38.672;2024-02-21T06:40:21;8.55;;;6.15;;
64881;SDS011;51375;44.836;38.672;2024-02-21T06:42:48;12.93;;;6.40;;
64881;SDS011;51375;44.836;38.672;2024-02-21T06:45:15;10.48;;;6.88;;
64881;SDS011;51375;44.836;38.672;2024-02-21T06:47:41;12.20;;;6.65;;
64881;SDS011;51375;44.836;38.672;2024-02-21T06:50:07;13.00;;;7.05;;
64881;SDS011;51375;44.836;38.672;2024-02-21T06:52:35;14.27;;;6.97;;
64881;SDS011;51375;44.836;38.672;2024-02-21T06:55:04;14.23;;;7.25;;
64881;SDS011;51375;44.836;38.672;2024-02-21T06:57:32;25.35;;;6.70;;
64881;SDS011;51375;44.836;38.672;2024-02-21T06:59:58;13.18;;;6.97;;
64881;SDS011;51375;44.836;38.672;2024-02-21T07:02:24;12.77;;;7.75;;
64881;SDS011;51375;44.836;38.672;2024-02-21T07:04:50;16.35;;;7.05;;
64881;SDS011;51375;44.836;38.672;2024-02-21T07:07:16;13.95;;;6.97;;
64881;SDS011;51375;44.836;38.672;2024-02-21T07:09:42;16.23;;;6.63;;
64881;SDS011;51375;44.836;38.672;2024-02-21T07:12:10;11.75;;;7.30;;
64881;SDS011;51375;44.836;38.672;2024-02-21T07:14:36;17.10;;;8.77;;
64881;SDS011;51375;44.836;38.672;2024-02-21T07:17:02;13.07;;;7.53;;
64881;SDS011;51375;44.836;38.672;2024-02-21T07:19:28;12.60;;;6.85;;
64881;SDS011;51375;44.836;38.672;2024-02-21T07:21:54;14.57;;;7.22;;
64881;SDS011;51375;44.836;38.672;2024-02-21T07:24:22;16.92;;;8.18;;
64881;SDS011;51375;44.836;38.672;2024-02-21T07:26:48;10.93;;;6.68;;
64881;SDS011;51375;44.836;38.672;2024-02-21T07:29:14;12.95;;;7.95;;
64881;SDS011;51375;44.836;38.672;2024-02-21T07:31:43;18.75;;;8.75;;
64881;SDS011;51375;44.836;38.672;2024-02-21T07:34:09;11.52;;;7.22;;
64881;SDS011;51375;44.836;38.672;2024-02-21T07:36:36;22.17;;;10.88;;
64881;SDS011;51375;44.836;38.672;2024-02-21T07:39:04;15.82;;;8.35;;
64881;SDS011;51375;44.836;38.672;2024-02-21T07:41:31;16.73;;;8.88;;
64881;SDS011;51375;44.836;38.672;2024-02-21T07:43:59;17.88;;;9.35;;
64881;SDS011;51375;44.836;38.672;2024-02-21T07:46:25;15.13;;;8.05;;
64881;SDS011;51375;44.836;38.672;2024-02-21T07:48:51;12.02;;;7.43;;
64881;SDS011;51375;44.836;38.672;2024-02-21T07:51:17;14.57;;;8.10;;
64881;SDS011;51375;44.836;38.672;2024-02-21T07:53:44;14.95;;;8.20;;
64881;SDS011;51375;44.836;38.672;2024-02-21T07:56:11;17.45;;;8.80;;
64881;SDS011;51375;44.836;38.672;2024-02-21T07:58:43;13.43;;;7.78;;
64881;SDS011;51375;44.836;38.672;2024-02-21T08:01:10;17.17;;;8.05;;
64881;SDS011;51375;44.836;38.672;2024-02-21T08:03:36;12.65;;;6.65;;
64881;SDS011;51375;44.836;38.672;2024-02-21T08:06:02;15.57;;;7.30;;
64881;SDS011;51375;44.836;38.672;2024-02-21T08:08:29;13.82;;;7.30;;
64881;SDS011;51375;44.836;38.672;2024-02-21T08:10:55;15.80;;;7.88;;
64881;SDS011;51375;44.836;38.672;2024-02-21T08:13:21;18.15;;;7.47;;
64881;SDS011;51375;44.836;38.672;2024-02-21T08:15:47;11.25;;;6.75;;
64881;SDS011;51375;44.836;38.672;2024-02-21T08:18:13;16.15;;;8.07;;
64881;SDS011;51375;44.836;38.672;2024-02-21T08:20:39;13.88;;;7.18;;
64881;SDS011;51375;44.836;38.672;2024-02-21T08:23:05;12.23;;;6.18;;
64881;SDS011;51375;44.836;38.672;2024-02-21T08:25:31;10.18;;;6.28;;
64881;SDS011;51375;44.836;38.672;2024-02-21T08:27:58;15.50;;;6.18;;
64881;SDS011;51375;44.836;38.672;2024-02-21T08:30:24;14.85;;;7.03;;
64881;SDS011;51375;44.836;38.672;2024-02-21T08:32:51;17.20;;;6.63;;
64881;SDS011;51375;44.836;38.672;2024-02-21T08:35:17;13.75;;;6.78;;
64881;SDS011;51375;44.836;38.672;2024-02-21T08:37:44;8.55;;;4.70;;
64881;SDS011;51375;44.836;38.672;2024-02-21T08:40:13;10.73;;;5.75;;
64881;SDS011;51375;44.836;38.672;2024-02-21T08:42:43;9.18;;;5.18;;
64881;SDS011;51375;44.836;38.672;2024-02-21T08:45:09;10.82;;;5.85;;
64881;SDS011;51375;44.836;38.672;2024-02-21T08:47:36;8.98;;;5.90;;
64881;SDS011;51375;44.836;38.672;2024-02-21T08:50:04;12.98;;;6.10;;
64881;SDS011;51375;44.836;38.672;2024-02-21T08:52:31;8.77;;;5.43;;
64881;SDS011;51375;44.836;38.672;2024-02-21T08:54:57;9.57;;;4.93;;
64881;SDS011;51375;44.836;38.672;2024-02-21T08:57:23;8.80;;;5.15;;
64881;SDS011;51375;44.836;38.672;2024-02-21T08:59:49;7.35;;;3.65;;
64881;SDS011;51375;44.836;38.672;2024-02-21T09:02:15;12.93;;;5.53;;
64881;SDS011;51375;44.836;38.672;2024-02-21T09:04:41;9.18;;;5.15;;
64881;SDS011;51375;44.836;38.672;2024-02-21T09:07:09;9.27;;;4.65;;
64881;SDS011;51375;44.836;38.672;2024-02-21T09:09:36;3.38;;;2.40;;
64881;SDS011;51375;44.836;38.672;2024-02-21T09:12:04;6.95;;;4.50;;
64881;SDS011;51375;44.836;38.672;2024-02-21T09:14:32;9.77;;;4.35;;
64881;SDS011;51375;44.836;38.672;2024-02-21T09:16:59;4.50;;;2.20;;
64881;SDS011;51375;44.836;38.672;2024-02-21T09:19:25;5.22;;;2.40;;
64881;SDS011;51375;44.836;38.672;2024-02-21T09:21:52;6.95;;;3.60;;
64881;SDS011;51375;44.836;38.672;2024-02-21T09:24:19;7.15;;;4.13;;
64881;SDS011;51375;44.836;38.672;2024-02-21T09:26:45;9.88;;;3.97;;
64881;SDS011;51375;44.836;38.672;2024-02-21T09:29:11;10.13;;;3.90;;
64881;SDS011;51375;44.836;38.672;2024-02-21T09:31:37;7.90;;;4.63;;
64881;SDS011;51375;44.836;38.672;2024-02-21T09:34:04;11.18;;;4.05;;
64881;SDS011;51375;44.836;38.672;2024-02-21T09:36:30;9.73;;;4.22;;
64881;SDS011;51375;44.836;38.672;2024-02-21T09:38:56;8.07;;;4.65;;
64881;SDS011;51375;44.836;38.672;2024-02-21T09:41:26;7.05;;;3.78;;
64881;SDS011;51375;44.836;38.672;2024-02-21T09:43:55;9.05;;;4.47;;
64881;SDS011;51375;44.836;38.672;2024-02-21T09:46:44;6.68;;;3.30;;
64881;SDS011;51375;44.836;38.672;2024-02-21T09:49:33;10.52;;;4.85;;
64881;SDS011;51375;44.836;38.672;2024-02-21T09:52:00;8.57;;;4.43;;
64881;SDS011;51375;44.836;38.672;2024-02-21T09:54:30;7.25;;;4.55;;
64881;SDS011;51375;44.836;38.672;2024-02-21T09:57:01;6.88;;;4.20;;
64881;SDS011;51375;44.836;38.672;2024-02-21T09:59:28;7.78;;;4.07;;
64881;SDS011;51375;44.836;38.672;2024-02-21T10:01:56;6.03;;;3.55;;
64881;SDS011;51375;44.836;38.672;2024-02-21T10:04:24;6.80;;;4.53;;
64881;SDS011;51375;44.836;38.672;2024-02-21T10:06:50;7.45;;;4.15;;
64881;SDS011;51375;44.836;38.672;2024-02-21T10:09:20;6.43;;;3.20;;
64881;SDS011;51375;44.836;38.672;2024-02-21T10:11:49;5.65;;;3.67;;
64881;SDS011;51375;44.836;38.672;2024-02-21T10:14:16;8.23;;;4.00;;
64881;SDS011;51375;44.836;38.672;2024-02-21T10:16:44;7.35;;;4.10;;
64881;SDS011;51375;44.836;38.672;2024-02-21T10:19:18;9.50;;;4.00;;
64881;SDS011;51375;44.836;38.672;2024-02-21T10:22:01;6.18;;;3.70;;
64881;SDS011;51375;44.836;38.672;2024-02-21T10:24:35;8.82;;;3.90;;
64881;SDS011;51375;44.836;38.672;2024-02-21T10:27:06;5.40;;;2.47;;
64881;SDS011;51375;44.836;38.672;2024-02-21T10:29:39;5.32;;;2.10;;
64881;SDS011;51375;44.836;38.672;2024-02-21T10:32:11;3.47;;;2.97;;
64881;SDS011;51375;44.836;38.672;2024-02-21T10:34:38;4.25;;;2.95;;
64881;SDS011;51375;44.836;38.672;2024-02-21T10:37:06;4.82;;;2.55;;
64881;SDS011;51375;44.836;38.672;2024-02-21T10:39:34;4.15;;;2.60;;
64881;SDS011;51375;44.836;38.672;2024-02-21T10:42:02;6.60;;;2.95;;
64881;SDS011;51375;44.836;38.672;2024-02-21T10:44:29;3.88;;;2.90;;
64881;SDS011;51375;44.836;38.672;2024-02-21T10:46:57;4.10;;;2.88;;
64881;SDS011;51375;44.836;38.672;2024-02-21T10:49:24;5.93;;;3.40;;
64881;SDS011;51375;44.836;38.672;2024-02-21T10:51:51;5.72;;;3.47;;
64881;SDS011;51375;44.836;38.672;2024-02-21T10:54:39;3.00;;;2.25;;
64881;SDS011;51375;44.836;38.672;2024-02-21T10:57:11;3.03;;;2.42;;
64881;SDS011;51375;44.836;38.672;2024-02-21T10:59:39;3.67;;;2.60;;
64881;SDS011;51375;44.836;38.672;2024-02-21T11:02:06;4.32;;;2.60;;
64881;SDS011;51375;44.836;38.672;2024-02-21T11:04:32;4.47;;;2.85;;
64881;SDS011;51375;44.836;38.672;2024-02-21T11:07:02;4.20;;;2.38;;
64881;SDS011;51375;44.836;38.672;2024-02-21T11:09:32;3.50;;;2.53;;
64881;SDS011;51375;44.836;38.672;2024-02-21T11:11:58;8.35;;;3.55;;
64881;SDS011;51375;44.836;38.672;2024-02-21T11:14:29;3.40;;;2.50;;
64881;SDS011;51375;44.836;38.672;2024-02-21T11:17:02;4.80;;;3.07;;
64881;SDS011;51375;44.836;38.672;2024-02-21T11:19:29;3.50;;;2.70;;
64881;SDS011;51375;44.836;38.672;2024-02-21T11:21:56;3.58;;;2.50;;
64881;SDS011;51375;44.836;38.672;2024-02-21T11:24:27;4.57;;;1.98;;
64881;SDS011;51375;44.836;38.672;2024-02-21T11:27:07;2.78;;;1.80;;
64881;SDS011;51375;44.836;38.672;2024-02-21T11:29:47;3.97;;;2.85;;
64881;SDS011;51375;44.836;38.672;2024-02-21T11:32:16;6.60;;;3.22;;
64881;SDS011;51375;44.836;38.672;2024-02-21T11:37:20;3.92;;;2.40;;
64881;SDS011;51375;44.836;38.672;2024-02-21T11:39:46;4.22;;;3.00;;
64881;SDS011;51375;44.836;38.672;2024-02-21T11:42:14;3.83;;;2.15;;
64881;SDS011;51375;44.836;38.672;2024-02-21T11:44:40;4.20;;;2.53;;
64881;SDS011;51375;44.836;38.672;2024-02-21T11:47:08;4.00;;;2.50;;
64881;SDS011;51375;44.836;38.672;2024-02-21T11:49:38;3.53;;;2.70;;
64881;SDS011;51375;44.836;38.672;2024-02-21T11:52:08;5.72;;;3.83;;
64881;SDS011;51375;44.836;38.672;2024-02-21T11:54:34;6.22;;;3.42;;
64881;SDS011;51375;44.836;38.672;2024-02-21T11:57:00;5.30;;;3.28;;
64881;SDS011;51375;44.836;38.672;2024-02-21T11:59:29;5.88;;;2.72;;
64881;SDS011;51375;44.836;38.672;2024-02-21T12:01:58;5.22;;;2.65;;
64881;SDS011;51375;44.836;38.672;2024-02-21T12:04:28;4.45;;;3.28;;
64881;SDS011;51375;44.836;38.672;2024-02-21T12:06:59;7.07;;;3.03;;
64881;SDS011;51375;44.836;38.672;2024-02-21T12:09:25;4.80;;;2.83;;
64881;SDS011;51375;44.836;38.672;2024-02-21T12:12:01;5.18;;;2.95;;
64881;SDS011;51375;44.836;38.672;2024-02-21T12:14:31;5.80;;;3.10;;
64881;SDS011;51375;44.836;38.672;2024-02-21T12:16:58;4.65;;;3.10;;
64881;SDS011;51375;44.836;38.672;2024-02-21T12:19:26;7.38;;;3.90;;
64881;SDS011;51375;44.836;38.672;2024-02-21T12:21:54;7.60;;;4.05;;
64881;SDS011;51375;44.836;38.672;2024-02-21T12:24:23;5.88;;;3.30;;
64881;SDS011;51375;44.836;38.672;2024-02-21T12:26:50;6.63;;;3.45;;
64881;SDS011;51375;44.836;38.672;2024-02-21T12:29:20;4.80;;;2.95;;
64881;SDS011;51375;44.836;38.672;2024-02-21T12:31:46;5.32;;;3.90;;
64881;SDS011;51375;44.836;38.672;2024-02-21T12:34:14;7.07;;;4.25;;
64881;SDS011;51375;44.836;38.672;2024-02-21T12:36:41;6.35;;;3.65;;
64881;SDS011;51375;44.836;38.672;2024-02-21T12:39:09;5.70;;;3.65;;
64881;SDS011;51375;44.836;38.672;2024-02-21T12:41:36;4.43;;;2.78;;
64881;SDS011;51375;44.836;38.672;2024-02-21T12:44:12;6.53;;;3.17;;
64881;SDS011;51375;44.836;38.672;2024-02-21T12:46:38;6.50;;;3.45;;
64881;SDS011;51375;44.836;38.672;2024-02-21T12:49:05;5.68;;;3.60;;
64881;SDS011;51375;44.836;38.672;2024-02-21T12:51:33;6.22;;;3.80;;
64881;SDS011;51375;44.836;38.672;2024-02-21T12:54:00;13.07;;;6.85;;
64881;SDS011;51375;44.836;38.672;2024-02-21T12:56:26;8.70;;;3.35;;
64881;SDS011;51375;44.836;38.672;2024-02-21T12:58:53;4.80;;;3.30;;
64881;SDS011;51375;44.836;38.672;2024-02-21T13:01:19;8.43;;;4.13;;
64881;SDS011;51375;44.836;38.672;2024-02-21T13:03:46;8.05;;;5.40;;
64881;SDS011;51375;44.836;38.672;2024-02-21T13:06:12;10.45;;;5.75;;
64881;SDS011;51375;44.836;38.672;2024-02-21T13:08:38;13.48;;;4.90;;
64881;SDS011;51375;44.836;38.672;2024-02-21T13:11:05;6.22;;;4.00;;
64881;SDS011;51375;44.836;38.672;2024-02-21T13:13:31;4.40;;;2.58;;
64881;SDS011;51375;44.836;38.672;2024-02-21T13:15:57;5.22;;;3.40;;
64881;SDS011;51375;44.836;38.672;2024-02-21T13:18:23;7.47;;;3.92;;
64881;SDS011;51375;44.836;38.672;2024-02-21T13:20:49;7.10;;;3.65;;
64881;SDS011;51375;44.836;38.672;2024-02-21T13:23:15;5.65;;;3.45;;
64881;SDS011;51375;44.836;38.672;2024-02-21T13:25:41;7.10;;;3.40;;
64881;SDS011;51375;44.836;38.672;2024-02-21T13:28:09;9.13;;;3.80;;
64881;SDS011;51375;44.836;38.672;2024-02-21T13:30:35;8.20;;;3.20;;
64881;SDS011;51375;44.836;38.672;2024-02-21T13:33:01;6.18;;;3.53;;
64881;SDS011;51375;44.836;38.672;2024-02-21T13:35:28;6.88;;;4.45;;
64881;SDS011;51375;44.836;38.672;2024-02-21T13:37:54;6.32;;;4.28;;
64881;SDS011;51375;44.836;38.672;2024-02-21T13:40:20;6.53;;;4.03;;
64881;SDS011;51375;44.836;38.672;2024-02-21T13:42:46;3.63;;;2.58;;
64881;SDS011;51375;44.836;38.672;2024-02-21T13:45:12;4.22;;;3.08;;
64881;SDS011;51375;44.836;38.672;2024-02-21T13:47:40;4.07;;;2.85;;
64881;SDS011;51375;44.836;38.672;2024-02-21T13:50:06;3.65;;;2.80;;
64881;SDS011;51375;44.836;38.672;2024-02-21T13:52:36;3.40;;;2.45;;
64881;SDS011;51375;44.836;38.672;2024-02-21T13:55:05;3.65;;;1.98;;
64881;SDS011;51375;44.836;38.672;2024-02-21T13:57:34;7.53;;;4.20;;
64881;SDS011;51375;44.836;38.672;2024-02-21T14:00:01;6.15;;;3.28;;
64881;SDS011;51375;44.836;38.672;2024-02-21T14:02:37;14.13;;;4.82;;
64881;SDS011;51375;44.836;38.672;2024-02-21T14:05:05;5.68;;;3.88;;
64881;SDS011;51375;44.836;38.672;2024-02-21T14:07:31;11.05;;;4.60;;
64881;SDS011;51375;44.836;38.672;2024-02-21T14:09:58;10.68;;;4.57;;
64881;SDS011;51375;44.836;38.672;2024-02-21T14:12:24;8.18;;;5.18;;
64881;SDS011;51375;44.836;38.672;2024-02-21T14:14:50;9.30;;;5.35;;
64881;SDS011;51375;44.836;38.672;2024-02-21T14:17:17;11.63;;;5.32;;
64881;SDS011;51375;44.836;38.672;2024-02-21T14:19:44;11.25;;;5.32;;
64881;SDS011;51375;44.836;38.672;2024-02-21T14:22:10;8.00;;;5.28;;
64881;SDS011;51375;44.836;38.672;2024-02-21T14:24:37;7.90;;;5.55;;
64881;SDS011;51375;44.836;38.672;2024-02-21T14:27:03;13.18;;;6.07;;
64881;SDS011;51375;44.836;38.672;2024-02-21T14:29:29;13.48;;;5.25;;